Terminal Aerodrome Forecast
Issued by NWS Knoxville/Tri Cities, TN

Home | Current Version | Previous Version | Text Only | Print | Product List | Glossary On
Versions: 1 2 3 4 5 6 7 8 9 10 11 12 13 14 15 16 17 18 19 20 21 22 23 24 25 26 27
000
FTUS44 KMRX 031126
TAFTYS
TAF
KTYS 031126Z 0312/0412 VRB03KT P6SM VCSH OVC025
     FM031430 VRB04KT 6SM -SHRA BR SCT007 OVC015
     FM040100 22008KT 3SM -SHRA BR BKN007 OVC015 WS020/22045KT
     FM040800 23010G17KT P6SM VCSH SCT010 OVC025 WS020/22045KT=

USA.gov is the U.S. government's official web portal to all federal, state and local government web resources and services.